Melbourne International Airport
KMLB : now visible

Airfield :











YOU CAN JOIN US ON...

 
LOGIN :

Register | Disclaimer

   EN    FR    IT 

 









Legend :    VFR   Marginal VFR   IFR   Intensive IFR   Very Intensive IFR
Visi :
Ceiling :
>= 8 km
>= 3000ft
5 to 8 km
1000 to 3000 ft
1500m to 5 km
500 to 1000 ft
800 to 1500m
200 to 500 ft
< 800m
< 200 ft
Symbols :   Thunderstorms  Fog  Heavy snow  Heavy precipitations  Wind > 20 kt







- Airport Elevation : 33 ft
- IATA code : MLB


KMLB - Melbourne International

CURRENT METAR :
  • 191453Z 11008KT 10SM SCT030 28/21 A3005 RMK AO2 SLP174 T02830211 53004

EXPIRED METARs :
  • 191353Z VRB04KT 10SM CLR 28/21 A3004 RMK AO2 SLP172 T02780211
  • 191253Z VRB03KT 10SM CLR 27/21 A3003 RMK AO2 SLP169 T02670211
  • 191153Z 00000KT 10SM CLR 24/20 A3004 RMK AO2 SLP170 T02390200 10250 20200 53009

TAF KMLB
Valid from the 19 at 12:00 until the 20 at 12:00 UTC


191132Z 1912/2012 00000KT P6SM FEW030
FM191400 10007KT P6SM SCT035
FM191800 09012KT P6SM FEW035
FM200300 11004KT P6SM SKC
KZMA FIR / North America



MET'MAP, your aeronautical weather chart ! - Copyright ORBIFLY December 2007 - Disclaimer

ORBIFLY MET'MAP TEAM :

Programming & Development : Alexandra Zaïnal
Concept & Development : Baudouin d'Aumeries
Co-Development & Prog : Marc-Olivier Méhu
Technical & hardware support : Manuel Goepfert

Contact : metmap@orbifly.com




SOURCES & CREDITS :

   NOAA       Earth
Advisory